Monday, November 20, 2017, 1:39 PM EST
Back to Local

KMGJ, Montgomery Orange Co Airport

Location: Montgomery, NY, United States Lat: 41.517
Local Time: 1:39 PM EST (18:39 GMT) Lon: -74.267
Time Zone: US/Eastern Elev: 354 ft

Show me the last for .
Show Decoded

2017-11-20 12:54 METAR KMGJ 201754Z AUTO 29015G24KT 10SM SCT050 06/M06 A2997 RMK AO2 PK WND
                 33032/1658 SLP152 T00611056 10067 20006 58008 =
2017-11-20 11:54 METAR KMGJ 201654Z AUTO 28016G24KT 250V330 10SM BKN048 06/M06 A2999 RMK AO2 PK
                 WND 28026/1643 SLP157 T00611056 =
2017-11-20 10:54 METAR KMGJ 201554Z AUTO 30012G20KT 10SM OVC045 04/M05 A2999 RMK AO2 SLP157
                 T00441050 =
2017-11-20 09:54 METAR KMGJ 201454Z AUTO 27014G22KT 10SM BKN039 OVC048 03/M04 A3000 RMK AO2
                 SLP160 T00331044 51019 =
2017-11-20 08:54 METAR KMGJ 201354Z AUTO 26009KT 10SM BKN047 OVC060 03/M06 A2998 RMK AO2 SLP155
                 T00281061 =
2017-11-20 07:54 METAR KMGJ 201254Z AUTO 27004KT 10SM OVC070 02/M06 A2997 RMK AO2 SLP152
                 T00171061 =
2017-11-20 06:54 METAR KMGJ 201154Z AUTO 27007KT 10SM BKN065 01/M07 A2994 RMK AO2 SLP142
                 T00061072 10022 20006 53028 =
2017-11-20 05:54 METAR KMGJ 201054Z AUTO 26006KT 10SM FEW044 OVC075 01/M07 A2991 RMK AO2 SLP130
                 T00111067 =
2017-11-20 04:54 METAR KMGJ 200954Z AUTO 27006KT 10SM FEW048 OVC070 02/M07 A2988 RMK AO2 SLP122
                 T00171067 =
2017-11-20 03:54 METAR KMGJ 200854Z AUTO 28009G15KT 10SM OVC075 02/M07 A2986 RMK AO2 SLP113
                 T00171067 51025 =
2017-11-20 02:54 METAR KMGJ 200754Z AUTO 30012G17KT 10SM SCT070 02/M08 A2985 RMK AO2 SLP109
                 T00171078 =
2017-11-20 01:54 METAR KMGJ 200654Z AUTO 29008KT 10SM CLR 02/M07 A2981 RMK AO2 SLP097 T00171072 =
2017-11-20 00:54 METAR KMGJ 200554Z AUTO 28008KT 10SM CLR 02/M06 A2978 RMK AO2 SLP088 T00221061
                 10044 20022 53020 =
2017-11-19 23:54 METAR KMGJ 200454Z AUTO VRB06G16KT 10SM FEW080 03/M04 A2976 RMK AO2 SLP080
                 T00281039 401330022 =
2017-11-19 22:54 METAR KMGJ 200354Z AUTO 28008KT 10SM CLR 03/M03 A2974 RMK AO2 SLP075 T00281028 =
2017-11-19 21:54 METAR KMGJ 200254Z AUTO 26007KT 10SM FEW043 BKN050 03/M02 A2972 RMK AO2 SLP067
                 T00281017 51019 =
2017-11-19 20:54 METAR KMGJ 200154Z AUTO 26007KT 10SM FEW050 BKN070 OVC090 04/M03 A2971 RMK AO2
                 SLP062 T00391028 =
2017-11-19 19:54 METAR KMGJ 200054Z AUTO 28005KT 10SM BKN085 04/M03 A2969 RMK AO2 SLP056
                 T00391033 =
2017-11-19 18:54 METAR KMGJ 192354Z AUTO 28007KT 10SM CLR 04/M04 A2967 RMK AO2 SLP047 T00391039
                 10067 20039 53022 =
2017-11-19 17:54 METAR KMGJ 192254Z AUTO 32013G19KT 10SM OVC055 06/M04 A2964 RMK AO2 SLP038
                 T00561044 =
2017-11-19 16:54 METAR KMGJ 192154Z AUTO 30012G21KT 10SM OVC055 06/M04 A2962 RMK AO2 SLP030
                 T00561044 =
2017-11-19 15:54 METAR KMGJ 192054Z AUTO 29012G17KT 10SM OVC047 06/M02 A2960 RMK AO2 PK WND
                 28026/2011 SLP025 T00561022 53030 =
2017-11-19 14:54 METAR KMGJ 191954Z AUTO 31015G23KT 10SM OVC044 06/M03 A2956 RMK AO2 PK WND
                 28031/1917 SLP012 T00611028 =
2017-11-19 13:54 METAR KMGJ 191854Z AUTO 30015G25KT 10SM OVC040 06/M02 A2954 RMK AO2 PK WND
                 30035/1826 SLP004 T00611022 =

Support USWX by starting your Amazon purchase here.